Howard Lake, MN (55349)

8:32 AM CDT on October 21, 2014 (GMT -0500)
KMNHOWAR2 | Change Station
CLOSE
Current Station
Personal Weather Station
Location: Howard Lake, MN
Elevation: 1014 ft
Nearby Weather Stations

Elev 1014 ft 45.06 °N, 94.08 °W | Updated 4 minutes ago

Clear
Clear
37.7 °F
Feels Like 38 °F
N
0.0
Wind Variable Wind from NNE

Today
High -- | Low -- °F
--% Chance of Precip.
Yesterday
High -- | Low -- °F
Precip. -- in
7:39 AM 6:21 PM
Waning Crescent, 5% visible
Pressure 30.19 in
Visibility 10.0 miles
Clouds Clear
Windchill 38 °F
Dew Point 36 °F
Humidity 94%
Rainfall 0.00 in
Snow Depth Not available.
UV 0.0 out of 12
Pollen 1.30 out of 12
Ozone Good
PM2.5 Good
Flu Activity Sporadic
METAR KCFE 211314Z AUTO 00000KT 10SM CLR 03/02 A3019 RMK AO2 T00260015

More Conditions Fewer Conditions

Pressure 30.19 in
Visibility 10.0 miles
Clouds Clear
Windchill 38 °F
Dew Point 36 °F
Humidity 94%
Rainfall 0.00 in
Snow Depth Not available.
UV 0.0 out of 12
Pollen 1.30 out of 12
Ozone Good
PM2.5 Good
Flu Activity Sporadic
METAR KCFE 211314Z AUTO 00000KT 10SM CLR 03/02 A3019 RMK AO2 T00260015

More Conditions Fewer Conditions

10-Day Weather Forecast

Almanac

Astronomy

Oct. 21, 2014 Rise Set
Actual Time 7:39 AM CDT 6:21 PM CDT
Civil Twilight 7:10 AM CDT 6:50 PM CDT
Nautical Twilight 6:35 AM CDT 7:25 PM CDT
Astronomical Twilight 6:01 AM CDT 7:59 PM CDT
Moon 5:19 AM CDT 5:20 PM CDT
Length of Visible Light 11h 40m
Length of Day
10h 41m
Tomorrow will be 2m 58s shorter.
Waning Crescent, 5% of the Moon is Illuminated
Today
Waning Crescent
Oct 23
New
Oct 30
First Quarter
Nov 6
Full
Nov 14
Last Quarter

Today's Extremes

State Highs State Lows

Community

WunderPhotos

Upload Photos

1,763,662 photos uploaded!

Nearby

Air Quality

  Air Quality AQ Index Pollutant
Yesterday Good
PM2.5
Yesterday Good
OZONE
Current Good
PM2.5
Current Good
OZONE
Tuesday Good
PM2.5
Wednesday Good
PM2.5
Thursday Good
PM2.5
Friday Moderate
PM2.5
Saturday Moderate
PM2.5

Snow Depth

Station Depth Elevation
No new snow has been reported.

Earthquake Activity

City Distance Mag. Time & Date
No recent earthquake activity has been reported nearby.
Minimum magnitude displayed is 2.5.

Coastal Water Temperatures

Place Temperature
No Stations Reporting

Nearby Weather Stations